sensor_id;sensor_type;location;lat;lon;timestamp;P1;durP1;ratioP1;P2;durP2;ratioP2
62179;SDS011;48172;53.374;10.722;2022-10-17T00:00:44;2.40;;;1.67;;
62179;SDS011;48172;53.374;10.722;2022-10-17T00:03:11;1.40;;;1.30;;
62179;SDS011;48172;53.374;10.722;2022-10-17T00:05:38;2.10;;;1.23;;
62179;SDS011;48172;53.374;10.722;2022-10-17T00:08:09;1.90;;;1.50;;
62179;SDS011;48172;53.374;10.722;2022-10-17T00:10:37;1.45;;;1.35;;
62179;SDS011;48172;53.374;10.722;2022-10-17T00:13:05;1.65;;;1.40;;
62179;SDS011;48172;53.374;10.722;2022-10-17T00:15:32;2.47;;;1.58;;
62179;SDS011;48172;53.374;10.722;2022-10-17T00:17:58;1.92;;;1.40;;
62179;SDS011;48172;53.374;10.722;2022-10-17T00:20:25;1.70;;;1.52;;
62179;SDS011;48172;53.374;10.722;2022-10-17T00:22:52;1.95;;;1.40;;
62179;SDS011;48172;53.374;10.722;2022-10-17T00:25:18;1.40;;;1.30;;
62179;SDS011;48172;53.374;10.722;2022-10-17T00:27:45;1.70;;;1.30;;
62179;SDS011;48172;53.374;10.722;2022-10-17T00:30:12;1.65;;;1.42;;
62179;SDS011;48172;53.374;10.722;2022-10-17T00:32:41;2.35;;;1.70;;
62179;SDS011;48172;53.374;10.722;2022-10-17T00:35:07;2.55;;;1.70;;
62179;SDS011;48172;53.374;10.722;2022-10-17T00:37:34;1.85;;;1.40;;
62179;SDS011;48172;53.374;10.722;2022-10-17T00:40:00;1.73;;;1.30;;
62179;SDS011;48172;53.374;10.722;2022-10-17T00:42:27;1.40;;;1.30;;
62179;SDS011;48172;53.374;10.722;2022-10-17T00:47:34;1.63;;;1.50;;
62179;SDS011;48172;53.374;10.722;2022-10-17T00:50:02;1.73;;;1.50;;
62179;SDS011;48172;53.374;10.722;2022-10-17T00:52:31;1.40;;;1.30;;
62179;SDS011;48172;53.374;10.722;2022-10-17T00:55:04;1.95;;;1.58;;
62179;SDS011;48172;53.374;10.722;2022-10-17T00:57:35;1.48;;;1.38;;
62179;SDS011;48172;53.374;10.722;2022-10-17T01:00:04;2.33;;;1.40;;
62179;SDS011;48172;53.374;10.722;2022-10-17T01:02:33;1.35;;;1.20;;
62179;SDS011;48172;53.374;10.722;2022-10-17T01:05:00;2.13;;;1.60;;
62179;SDS011;48172;53.374;10.722;2022-10-17T01:07:27;2.45;;;1.60;;
62179;SDS011;48172;53.374;10.722;2022-10-17T01:10:01;1.80;;;1.30;;
62179;SDS011;48172;53.374;10.722;2022-10-17T01:18:09;1.77;;;1.23;;
62179;SDS011;48172;53.374;10.722;2022-10-17T01:23:53;1.88;;;1.35;;
62179;SDS011;48172;53.374;10.722;2022-10-17T01:26:36;1.42;;;1.33;;
62179;SDS011;48172;53.374;10.722;2022-10-17T01:31:59;1.40;;;1.23;;
62179;SDS011;48172;53.374;10.722;2022-10-17T01:39:49;1.40;;;1.20;;
62179;SDS011;48172;53.374;10.722;2022-10-17T01:45:27;1.92;;;1.20;;
62179;SDS011;48172;53.374;10.722;2022-10-17T01:47:59;1.20;;;1.10;;
62179;SDS011;48172;53.374;10.722;2022-10-17T01:50:31;1.20;;;1.10;;
62179;SDS011;48172;53.374;10.722;2022-10-17T01:53:05;1.30;;;1.20;;
62179;SDS011;48172;53.374;10.722;2022-10-17T01:55:36;1.75;;;1.42;;
62179;SDS011;48172;53.374;10.722;2022-10-17T01:58:10;3.63;;;1.40;;
62179;SDS011;48172;53.374;10.722;2022-10-17T02:00:39;1.42;;;1.33;;
62179;SDS011;48172;53.374;10.722;2022-10-17T02:03:11;1.25;;;0.98;;
62179;SDS011;48172;53.374;10.722;2022-10-17T02:05:41;1.88;;;1.17;;
62179;SDS011;48172;53.374;10.722;2022-10-17T02:08:09;1.75;;;1.27;;
62179;SDS011;48172;53.374;10.722;2022-10-17T02:10:41;1.25;;;1.15;;
62179;SDS011;48172;53.374;10.722;2022-10-17T02:13:31;1.88;;;1.30;;
62179;SDS011;48172;53.374;10.722;2022-10-17T02:16:11;1.45;;;1.30;;
62179;SDS011;48172;53.374;10.722;2022-10-17T02:21:48;1.30;;;1.20;;
62179;SDS011;48172;53.374;10.722;2022-10-17T02:32:52;1.25;;;1.15;;
62179;SDS011;48172;53.374;10.722;2022-10-17T02:35:20;1.40;;;1.20;;
62179;SDS011;48172;53.374;10.722;2022-10-17T02:37:49;1.20;;;1.02;;
62179;SDS011;48172;53.374;10.722;2022-10-17T02:40:16;1.40;;;1.30;;
62179;SDS011;48172;53.374;10.722;2022-10-17T02:42:46;1.35;;;1.25;;
62179;SDS011;48172;53.374;10.722;2022-10-17T02:45:15;1.25;;;1.15;;
62179;SDS011;48172;53.374;10.722;2022-10-17T02:50:23;1.58;;;1.33;;
62179;SDS011;48172;53.374;10.722;2022-10-17T02:52:59;1.02;;;1.00;;
62179;SDS011;48172;53.374;10.722;2022-10-17T02:55:30;1.48;;;1.17;;
62179;SDS011;48172;53.374;10.722;2022-10-17T02:58:06;1.10;;;1.00;;
62179;SDS011;48172;53.374;10.722;2022-10-17T03:03:16;2.25;;;1.13;;
62179;SDS011;48172;53.374;10.722;2022-10-17T03:05:51;1.20;;;1.10;;
62179;SDS011;48172;53.374;10.722;2022-10-17T03:08:19;1.55;;;1.45;;
62179;SDS011;48172;53.374;10.722;2022-10-17T03:10:46;1.20;;;1.10;;
62179;SDS011;48172;53.374;10.722;2022-10-17T03:13:13;1.23;;;1.13;;
62179;SDS011;48172;53.374;10.722;2022-10-17T03:15:40;1.30;;;1.20;;
62179;SDS011;48172;53.374;10.722;2022-10-17T03:18:07;1.42;;;1.20;;
62179;SDS011;48172;53.374;10.722;2022-10-17T03:20:33;1.48;;;1.17;;
62179;SDS011;48172;53.374;10.722;2022-10-17T03:23:00;1.67;;;1.35;;
62179;SDS011;48172;53.374;10.722;2022-10-17T03:25:26;1.23;;;1.13;;
62179;SDS011;48172;53.374;10.722;2022-10-17T03:27:53;1.88;;;1.30;;
62179;SDS011;48172;53.374;10.722;2022-10-17T03:30:20;1.25;;;1.15;;
62179;SDS011;48172;53.374;10.722;2022-10-17T03:32:46;1.60;;;1.20;;
62179;SDS011;48172;53.374;10.722;2022-10-17T03:35:12;1.23;;;1.13;;
62179;SDS011;48172;53.374;10.722;2022-10-17T03:37:40;1.40;;;1.15;;
62179;SDS011;48172;53.374;10.722;2022-10-17T03:40:07;1.30;;;1.20;;
62179;SDS011;48172;53.374;10.722;2022-10-17T03:42:33;1.10;;;1.00;;
62179;SDS011;48172;53.374;10.722;2022-10-17T03:45:00;1.20;;;1.10;;
62179;SDS011;48172;53.374;10.722;2022-10-17T03:47:27;1.20;;;1.10;;
62179;SDS011;48172;53.374;10.722;2022-10-17T03:49:54;1.30;;;1.20;;
62179;SDS011;48172;53.374;10.722;2022-10-17T03:52:21;1.00;;;0.90;;
62179;SDS011;48172;53.374;10.722;2022-10-17T03:54:48;1.00;;;1.00;;
62179;SDS011;48172;53.374;10.722;2022-10-17T03:57:16;2.13;;;1.23;;
62179;SDS011;48172;53.374;10.722;2022-10-17T03:59:43;1.30;;;1.20;;
62179;SDS011;48172;53.374;10.722;2022-10-17T04:02:10;1.30;;;1.20;;
62179;SDS011;48172;53.374;10.722;2022-10-17T04:04:36;1.38;;;1.10;;
62179;SDS011;48172;53.374;10.722;2022-10-17T04:07:02;1.30;;;1.20;;
62179;SDS011;48172;53.374;10.722;2022-10-17T04:09:29;1.45;;;1.20;;
62179;SDS011;48172;53.374;10.722;2022-10-17T04:11:55;1.20;;;1.10;;
62179;SDS011;48172;53.374;10.722;2022-10-17T04:14:22;1.40;;;1.08;;
62179;SDS011;48172;53.374;10.722;2022-10-17T04:16:48;1.17;;;0.85;;
62179;SDS011;48172;53.374;10.722;2022-10-17T04:19:15;1.40;;;1.10;;
62179;SDS011;48172;53.374;10.722;2022-10-17T04:21:41;4.13;;;1.05;;
62179;SDS011;48172;53.374;10.722;2022-10-17T04:24:09;1.38;;;1.10;;
62179;SDS011;48172;53.374;10.722;2022-10-17T04:26:36;1.23;;;1.05;;
62179;SDS011;48172;53.374;10.722;2022-10-17T04:29:03;0.98;;;0.95;;
62179;SDS011;48172;53.374;10.722;2022-10-17T04:31:30;1.70;;;1.10;;
62179;SDS011;48172;53.374;10.722;2022-10-17T04:33:56;2.13;;;0.95;;
62179;SDS011;48172;53.374;10.722;2022-10-17T04:36:23;1.08;;;0.90;;
62179;SDS011;48172;53.374;10.722;2022-10-17T04:38:49;1.20;;;1.10;;
62179;SDS011;48172;53.374;10.722;2022-10-17T04:41:16;1.13;;;1.02;;
62179;SDS011;48172;53.374;10.722;2022-10-17T04:43:43;2.00;;;1.20;;
62179;SDS011;48172;53.374;10.722;2022-10-17T04:46:16;1.45;;;1.30;;
62179;SDS011;48172;53.374;10.722;2022-10-17T04:48:42;1.08;;;1.00;;
62179;SDS011;48172;53.374;10.722;2022-10-17T04:51:13;1.10;;;1.00;;
62179;SDS011;48172;53.374;10.722;2022-10-17T04:53:41;1.35;;;0.90;;
62179;SDS011;48172;53.374;10.722;2022-10-17T04:56:15;1.10;;;1.00;;
62179;SDS011;48172;53.374;10.722;2022-10-17T04:58:43;1.40;;;1.30;;
62179;SDS011;48172;53.374;10.722;2022-10-17T05:01:12;1.20;;;1.10;;
62179;SDS011;48172;53.374;10.722;2022-10-17T05:03:40;1.13;;;0.95;;
62179;SDS011;48172;53.374;10.722;2022-10-17T05:06:07;1.20;;;1.10;;
62179;SDS011;48172;53.374;10.722;2022-10-17T05:08:36;1.27;;;1.10;;
62179;SDS011;48172;53.374;10.722;2022-10-17T05:11:03;1.13;;;1.00;;
62179;SDS011;48172;53.374;10.722;2022-10-17T05:13:31;1.17;;;0.98;;
62179;SDS011;48172;53.374;10.722;2022-10-17T05:15:58;0.98;;;0.88;;
62179;SDS011;48172;53.374;10.722;2022-10-17T05:18:26;1.27;;;1.08;;
62179;SDS011;48172;53.374;10.722;2022-10-17T05:20:53;1.00;;;0.90;;
62179;SDS011;48172;53.374;10.722;2022-10-17T05:23:19;1.05;;;1.00;;
62179;SDS011;48172;53.374;10.722;2022-10-17T05:25:46;1.10;;;1.00;;
62179;SDS011;48172;53.374;10.722;2022-10-17T05:28:12;1.02;;;0.90;;
62179;SDS011;48172;53.374;10.722;2022-10-17T05:30:39;1.20;;;1.10;;
62179;SDS011;48172;53.374;10.722;2022-10-17T05:33:05;0.90;;;0.90;;
62179;SDS011;48172;53.374;10.722;2022-10-17T05:35:32;1.25;;;1.02;;
62179;SDS011;48172;53.374;10.722;2022-10-17T05:37:58;1.10;;;1.00;;
62179;SDS011;48172;53.374;10.722;2022-10-17T05:40:25;1.10;;;1.00;;
62179;SDS011;48172;53.374;10.722;2022-10-17T05:42:52;1.33;;;1.20;;
62179;SDS011;48172;53.374;10.722;2022-10-17T05:45:18;1.10;;;1.00;;
62179;SDS011;48172;53.374;10.722;2022-10-17T05:47:45;1.20;;;1.10;;
62179;SDS011;48172;53.374;10.722;2022-10-17T05:50:11;1.25;;;1.00;;
62179;SDS011;48172;53.374;10.722;2022-10-17T05:52:38;1.60;;;1.10;;
62179;SDS011;48172;53.374;10.722;2022-10-17T05:55:05;1.25;;;1.10;;
62179;SDS011;48172;53.374;10.722;2022-10-17T05:57:33;1.10;;;1.00;;
62179;SDS011;48172;53.374;10.722;2022-10-17T05:59:59;1.38;;;1.08;;
62179;SDS011;48172;53.374;10.722;2022-10-17T06:02:26;1.20;;;0.98;;
62179;SDS011;48172;53.374;10.722;2022-10-17T06:04:56;1.00;;;1.00;;
62179;SDS011;48172;53.374;10.722;2022-10-17T06:07:23;1.70;;;1.25;;
62179;SDS011;48172;53.374;10.722;2022-10-17T06:09:49;3.28;;;1.00;;
62179;SDS011;48172;53.374;10.722;2022-10-17T06:12:15;1.30;;;1.20;;
62179;SDS011;48172;53.374;10.722;2022-10-17T06:14:42;1.20;;;1.00;;
62179;SDS011;48172;53.374;10.722;2022-10-17T06:17:09;2.03;;;1.10;;
62179;SDS011;48172;53.374;10.722;2022-10-17T06:19:41;3.55;;;1.30;;
62179;SDS011;48172;53.374;10.722;2022-10-17T06:22:07;2.58;;;1.25;;
62179;SDS011;48172;53.374;10.722;2022-10-17T06:24:34;2.45;;;1.10;;
62179;SDS011;48172;53.374;10.722;2022-10-17T06:27:00;1.58;;;1.10;;
62179;SDS011;48172;53.374;10.722;2022-10-17T06:29:27;4.20;;;1.20;;
62179;SDS011;48172;53.374;10.722;2022-10-17T06:31:53;1.42;;;1.27;;
62179;SDS011;48172;53.374;10.722;2022-10-17T06:34:20;2.53;;;1.10;;
62179;SDS011;48172;53.374;10.722;2022-10-17T06:36:46;1.55;;;1.23;;
62179;SDS011;48172;53.374;10.722;2022-10-17T06:39:13;1.52;;;0.90;;
62179;SDS011;48172;53.374;10.722;2022-10-17T06:41:40;5.15;;;1.20;;
62179;SDS011;48172;53.374;10.722;2022-10-17T06:44:06;4.47;;;1.42;;
62179;SDS011;48172;53.374;10.722;2022-10-17T06:46:37;2.47;;;1.23;;
62179;SDS011;48172;53.374;10.722;2022-10-17T06:49:04;2.05;;;1.20;;
62179;SDS011;48172;53.374;10.722;2022-10-17T06:51:35;2.03;;;1.23;;
62179;SDS011;48172;53.374;10.722;2022-10-17T06:54:02;7.72;;;1.00;;
62179;SDS011;48172;53.374;10.722;2022-10-17T06:56:29;3.38;;;1.48;;
62179;SDS011;48172;53.374;10.722;2022-10-17T06:58:56;1.85;;;1.17;;
62179;SDS011;48172;53.374;10.722;2022-10-17T07:01:22;2.33;;;1.35;;
62179;SDS011;48172;53.374;10.722;2022-10-17T07:03:49;2.63;;;1.35;;
62179;SDS011;48172;53.374;10.722;2022-10-17T07:06:15;4.13;;;1.70;;
62179;SDS011;48172;53.374;10.722;2022-10-17T07:08:43;5.93;;;1.67;;
62179;SDS011;48172;53.374;10.722;2022-10-17T07:11:12;4.82;;;1.75;;
62179;SDS011;48172;53.374;10.722;2022-10-17T07:13:40;5.15;;;1.70;;
62179;SDS011;48172;53.374;10.722;2022-10-17T07:16:07;2.53;;;1.17;;
62179;SDS011;48172;53.374;10.722;2022-10-17T07:18:34;2.97;;;1.20;;
62179;SDS011;48172;53.374;10.722;2022-10-17T07:21:00;2.28;;;1.05;;
62179;SDS011;48172;53.374;10.722;2022-10-17T07:23:27;3.33;;;1.42;;
62179;SDS011;48172;53.374;10.722;2022-10-17T07:25:58;3.17;;;1.05;;
62179;SDS011;48172;53.374;10.722;2022-10-17T07:28:38;2.72;;;1.40;;
62179;SDS011;48172;53.374;10.722;2022-10-17T07:31:11;5.95;;;1.30;;
62179;SDS011;48172;53.374;10.722;2022-10-17T07:33:40;1.83;;;1.20;;
62179;SDS011;48172;53.374;10.722;2022-10-17T07:36:07;2.30;;;1.10;;
62179;SDS011;48172;53.374;10.722;2022-10-17T07:38:34;1.95;;;1.30;;
62179;SDS011;48172;53.374;10.722;2022-10-17T07:41:03;5.07;;;1.60;;
62179;SDS011;48172;53.374;10.722;2022-10-17T07:43:31;3.13;;;1.48;;
62179;SDS011;48172;53.374;10.722;2022-10-17T07:45:59;5.80;;;1.88;;
62179;SDS011;48172;53.374;10.722;2022-10-17T07:48:26;5.63;;;1.92;;
62179;SDS011;48172;53.374;10.722;2022-10-17T07:50:55;6.15;;;1.77;;
62179;SDS011;48172;53.374;10.722;2022-10-17T07:53:22;5.95;;;1.77;;
62179;SDS011;48172;53.374;10.722;2022-10-17T07:55:48;4.60;;;1.73;;
62179;SDS011;48172;53.374;10.722;2022-10-17T07:58:16;6.70;;;1.80;;
62179;SDS011;48172;53.374;10.722;2022-10-17T08:00:42;7.43;;;1.48;;
62179;SDS011;48172;53.374;10.722;2022-10-17T08:03:09;3.78;;;1.85;;
62179;SDS011;48172;53.374;10.722;2022-10-17T08:05:36;3.30;;;1.63;;
62179;SDS011;48172;53.374;10.722;2022-10-17T08:08:02;4.20;;;1.55;;
62179;SDS011;48172;53.374;10.722;2022-10-17T08:10:29;3.35;;;1.50;;
62179;SDS011;48172;53.374;10.722;2022-10-17T08:12:56;4.07;;;1.48;;
62179;SDS011;48172;53.374;10.722;2022-10-17T08:15:24;6.03;;;1.48;;
62179;SDS011;48172;53.374;10.722;2022-10-17T08:17:57;1.90;;;1.40;;
62179;SDS011;48172;53.374;10.722;2022-10-17T08:20:23;4.22;;;1.40;;
62179;SDS011;48172;53.374;10.722;2022-10-17T08:22:53;7.25;;;1.83;;
62179;SDS011;48172;53.374;10.722;2022-10-17T08:25:20;6.72;;;2.13;;
62179;SDS011;48172;53.374;10.722;2022-10-17T08:27:48;5.45;;;2.20;;
62179;SDS011;48172;53.374;10.722;2022-10-17T08:30:15;4.28;;;1.88;;
62179;SDS011;48172;53.374;10.722;2022-10-17T08:32:41;3.83;;;1.70;;
62179;SDS011;48172;53.374;10.722;2022-10-17T08:35:08;5.03;;;1.92;;
62179;SDS011;48172;53.374;10.722;2022-10-17T08:37:34;5.13;;;1.70;;
62179;SDS011;48172;53.374;10.722;2022-10-17T08:40:01;6.32;;;1.63;;
62179;SDS011;48172;53.374;10.722;2022-10-17T08:47:44;5.13;;;1.75;;
62179;SDS011;48172;53.374;10.722;2022-10-17T08:50:24;6.35;;;1.70;;
62179;SDS011;48172;53.374;10.722;2022-10-17T08:52:57;3.55;;;1.42;;
62179;SDS011;48172;53.374;10.722;2022-10-17T08:58:16;5.45;;;1.63;;
62179;SDS011;48172;53.374;10.722;2022-10-17T09:00:50;7.88;;;1.70;;
62179;SDS011;48172;53.374;10.722;2022-10-17T09:06:16;5.65;;;2.00;;
62179;SDS011;48172;53.374;10.722;2022-10-17T09:17:37;3.25;;;1.40;;
62179;SDS011;48172;53.374;10.722;2022-10-17T09:22:57;5.53;;;1.73;;
62179;SDS011;48172;53.374;10.722;2022-10-17T09:25:27;5.18;;;1.73;;
62179;SDS011;48172;53.374;10.722;2022-10-17T09:28:05;4.10;;;1.40;;
62179;SDS011;48172;53.374;10.722;2022-10-17T09:30:45;3.25;;;1.27;;
62179;SDS011;48172;53.374;10.722;2022-10-17T09:33:25;3.90;;;1.45;;
62179;SDS011;48172;53.374;10.722;2022-10-17T09:38:48;8.18;;;1.92;;
62179;SDS011;48172;53.374;10.722;2022-10-17T09:41:25;6.72;;;1.70;;
62179;SDS011;48172;53.374;10.722;2022-10-17T09:49:42;5.85;;;1.90;;
62179;SDS011;48172;53.374;10.722;2022-10-17T09:52:15;5.45;;;2.03;;
62179;SDS011;48172;53.374;10.722;2022-10-17T09:55:04;6.18;;;1.60;;
62179;SDS011;48172;53.374;10.722;2022-10-17T09:57:51;4.72;;;1.60;;
62179;SDS011;48172;53.374;10.722;2022-10-17T10:00:20;3.95;;;1.30;;
62179;SDS011;48172;53.374;10.722;2022-10-17T10:02:49;3.90;;;1.20;;
62179;SDS011;48172;53.374;10.722;2022-10-17T10:05:16;4.88;;;1.55;;
62179;SDS011;48172;53.374;10.722;2022-10-17T10:07:58;6.35;;;1.65;;
62179;SDS011;48172;53.374;10.722;2022-10-17T10:10:28;5.47;;;1.70;;
62179;SDS011;48172;53.374;10.722;2022-10-17T10:13:01;6.15;;;1.63;;
62179;SDS011;48172;53.374;10.722;2022-10-17T10:15:40;6.90;;;1.50;;
62179;SDS011;48172;53.374;10.722;2022-10-17T10:26:46;6.60;;;1.80;;
62179;SDS011;48172;53.374;10.722;2022-10-17T10:34:54;5.80;;;2.03;;
62179;SDS011;48172;53.374;10.722;2022-10-17T10:37:26;4.38;;;1.60;;
62179;SDS011;48172;53.374;10.722;2022-10-17T10:39:56;5.53;;;2.05;;
62179;SDS011;48172;53.374;10.722;2022-10-17T10:42:31;4.03;;;1.65;;
62179;SDS011;48172;53.374;10.722;2022-10-17T10:45:14;7.43;;;1.90;;
62179;SDS011;48172;53.374;10.722;2022-10-17T10:50:42;12.25;;;3.80;;
62179;SDS011;48172;53.374;10.722;2022-10-17T10:53:24;12.98;;;3.53;;
62179;SDS011;48172;53.374;10.722;2022-10-17T10:59:12;10.10;;;3.83;;
62179;SDS011;48172;53.374;10.722;2022-10-17T11:01:51;12.45;;;3.72;;
62179;SDS011;48172;53.374;10.722;2022-10-17T11:04:45;8.10;;;3.00;;
62179;SDS011;48172;53.374;10.722;2022-10-17T11:07:37;9.65;;;3.15;;
62179;SDS011;48172;53.374;10.722;2022-10-17T11:16:22;11.63;;;2.85;;
62179;SDS011;48172;53.374;10.722;2022-10-17T11:23:35;8.88;;;3.35;;
62179;SDS011;48172;53.374;10.722;2022-10-17T11:26:21;8.02;;;3.25;;
62179;SDS011;48172;53.374;10.722;2022-10-17T11:28:52;22.95;;;3.90;;
62179;SDS011;48172;53.374;10.722;2022-10-17T11:31:20;12.45;;;3.50;;
62179;SDS011;48172;53.374;10.722;2022-10-17T11:34:00;14.88;;;4.18;;
62179;SDS011;48172;53.374;10.722;2022-10-17T11:36:33;9.52;;;3.30;;
62179;SDS011;48172;53.374;10.722;2022-10-17T11:40:04;11.05;;;3.70;;
62179;SDS011;48172;53.374;10.722;2022-10-17T11:42:18;9.05;;;2.85;;
62179;SDS011;48172;53.374;10.722;2022-10-17T11:45:02;7.30;;;2.67;;
62179;SDS011;48172;53.374;10.722;2022-10-17T11:53:16;9.25;;;2.50;;
62179;SDS011;48172;53.374;10.722;2022-10-17T11:55:45;8.48;;;2.80;;
62179;SDS011;48172;53.374;10.722;2022-10-17T11:58:21;8.98;;;2.95;;
62179;SDS011;48172;53.374;10.722;2022-10-17T12:07:09;10.77;;;2.70;;
62179;SDS011;48172;53.374;10.722;2022-10-17T12:12:45;12.00;;;2.85;;
62179;SDS011;48172;53.374;10.722;2022-10-17T12:17:59;7.07;;;2.83;;
62179;SDS011;48172;53.374;10.722;2022-10-17T12:20:29;7.78;;;3.10;;
62179;SDS011;48172;53.374;10.722;2022-10-17T12:25:31;10.18;;;2.78;;
62179;SDS011;48172;53.374;10.722;2022-10-17T12:28:08;6.38;;;2.60;;
62179;SDS011;48172;53.374;10.722;2022-10-17T12:30:54;6.35;;;2.92;;
62179;SDS011;48172;53.374;10.722;2022-10-17T12:33:25;5.60;;;2.70;;
62179;SDS011;48172;53.374;10.722;2022-10-17T12:38:44;3.03;;;2.00;;
62179;SDS011;48172;53.374;10.722;2022-10-17T12:41:15;9.98;;;2.92;;
62179;SDS011;48172;53.374;10.722;2022-10-17T12:43:43;4.15;;;2.47;;
62179;SDS011;48172;53.374;10.722;2022-10-17T12:46:12;3.92;;;2.15;;
62179;SDS011;48172;53.374;10.722;2022-10-17T12:49:35;6.80;;;2.20;;
62179;SDS011;48172;53.374;10.722;2022-10-17T13:00:28;3.88;;;2.17;;
62179;SDS011;48172;53.374;10.722;2022-10-17T13:03:39;3.08;;;2.10;;
62179;SDS011;48172;53.374;10.722;2022-10-17T13:06:18;3.78;;;2.30;;
62179;SDS011;48172;53.374;10.722;2022-10-17T13:08:48;5.85;;;2.50;;
62179;SDS011;48172;53.374;10.722;2022-10-17T13:11:24;4.70;;;2.28;;
62179;SDS011;48172;53.374;10.722;2022-10-17T13:13:56;4.18;;;2.50;;
62179;SDS011;48172;53.374;10.722;2022-10-17T13:18:58;5.43;;;2.30;;
62179;SDS011;48172;53.374;10.722;2022-10-17T13:21:26;6.35;;;2.47;;
62179;SDS011;48172;53.374;10.722;2022-10-17T13:23:54;3.75;;;2.53;;
62179;SDS011;48172;53.374;10.722;2022-10-17T13:26:22;5.70;;;2.58;;
62179;SDS011;48172;53.374;10.722;2022-10-17T13:31:34;4.93;;;1.92;;
62179;SDS011;48172;53.374;10.722;2022-10-17T13:34:14;4.10;;;2.25;;
62179;SDS011;48172;53.374;10.722;2022-10-17T13:36:42;2.92;;;2.28;;
62179;SDS011;48172;53.374;10.722;2022-10-17T13:39:15;5.50;;;2.17;;
62179;SDS011;48172;53.374;10.722;2022-10-17T13:41:57;3.92;;;2.08;;
62179;SDS011;48172;53.374;10.722;2022-10-17T13:44:25;3.08;;;2.13;;
62179;SDS011;48172;53.374;10.722;2022-10-17T13:46:53;3.92;;;2.00;;
62179;SDS011;48172;53.374;10.722;2022-10-17T13:52:00;5.70;;;2.92;;
62179;SDS011;48172;53.374;10.722;2022-10-17T13:57:16;5.75;;;2.47;;
62179;SDS011;48172;53.374;10.722;2022-10-17T13:59:49;7.55;;;2.65;;
62179;SDS011;48172;53.374;10.722;2022-10-17T14:02:19;6.78;;;2.80;;
62179;SDS011;48172;53.374;10.722;2022-10-17T14:07:52;7.88;;;2.90;;
62179;SDS011;48172;53.374;10.722;2022-10-17T14:10:42;12.05;;;3.75;;
62179;SDS011;48172;53.374;10.722;2022-10-17T14:13:17;12.65;;;3.72;;
62179;SDS011;48172;53.374;10.722;2022-10-17T14:15:49;12.27;;;3.92;;
62179;SDS011;48172;53.374;10.722;2022-10-17T14:18:20;12.82;;;3.95;;
62179;SDS011;48172;53.374;10.722;2022-10-17T14:20:50;10.18;;;4.18;;
62179;SDS011;48172;53.374;10.722;2022-10-17T14:23:39;9.63;;;3.47;;
62179;SDS011;48172;53.374;10.722;2022-10-17T14:26:19;10.40;;;4.30;;
62179;SDS011;48172;53.374;10.722;2022-10-17T14:29:13;14.90;;;5.03;;
62179;SDS011;48172;53.374;10.722;2022-10-17T14:31:46;15.40;;;4.65;;
62179;SDS011;48172;53.374;10.722;2022-10-17T14:34:19;10.43;;;4.35;;
62179;SDS011;48172;53.374;10.722;2022-10-17T14:36:55;14.75;;;4.75;;
62179;SDS011;48172;53.374;10.722;2022-10-17T14:39:22;14.77;;;4.97;;
62179;SDS011;48172;53.374;10.722;2022-10-17T14:41:51;15.60;;;5.22;;
62179;SDS011;48172;53.374;10.722;2022-10-17T14:44:23;10.38;;;4.53;;
62179;SDS011;48172;53.374;10.722;2022-10-17T14:46:56;11.05;;;4.25;;
62179;SDS011;48172;53.374;10.722;2022-10-17T14:49:49;10.82;;;4.13;;
62179;SDS011;48172;53.374;10.722;2022-10-17T14:54:48;7.78;;;3.85;;
62179;SDS011;48172;53.374;10.722;2022-10-17T14:57:21;11.07;;;4.15;;
62179;SDS011;48172;53.374;10.722;2022-10-17T15:00:06;10.77;;;4.15;;
62179;SDS011;48172;53.374;10.722;2022-10-17T15:02:32;9.23;;;4.45;;
62179;SDS011;48172;53.374;10.722;2022-10-17T15:05:00;11.35;;;4.30;;
62179;SDS011;48172;53.374;10.722;2022-10-17T15:07:26;9.88;;;3.88;;
62179;SDS011;48172;53.374;10.722;2022-10-17T15:09:52;12.82;;;4.38;;
62179;SDS011;48172;53.374;10.722;2022-10-17T15:12:20;10.48;;;4.20;;
62179;SDS011;48172;53.374;10.722;2022-10-17T15:14:48;10.63;;;4.50;;
62179;SDS011;48172;53.374;10.722;2022-10-17T15:17:24;10.32;;;3.70;;
62179;SDS011;48172;53.374;10.722;2022-10-17T15:19:55;11.90;;;4.07;;
62179;SDS011;48172;53.374;10.722;2022-10-17T15:22:22;10.00;;;3.95;;
62179;SDS011;48172;53.374;10.722;2022-10-17T15:24:49;9.55;;;3.92;;
62179;SDS011;48172;53.374;10.722;2022-10-17T15:27:20;11.10;;;4.40;;
62179;SDS011;48172;53.374;10.722;2022-10-17T15:29:48;13.20;;;4.90;;
62179;SDS011;48172;53.374;10.722;2022-10-17T15:32:15;7.35;;;3.30;;
62179;SDS011;48172;53.374;10.722;2022-10-17T15:34:42;7.30;;;3.83;;
62179;SDS011;48172;53.374;10.722;2022-10-17T15:37:14;10.70;;;4.43;;
62179;SDS011;48172;53.374;10.722;2022-10-17T15:39:42;10.05;;;4.05;;
62179;SDS011;48172;53.374;10.722;2022-10-17T15:42:10;9.63;;;3.72;;
62179;SDS011;48172;53.374;10.722;2022-10-17T15:44:40;7.75;;;3.42;;
62179;SDS011;48172;53.374;10.722;2022-10-17T15:47:21;9.02;;;3.80;;
62179;SDS011;48172;53.374;10.722;2022-10-17T15:49:49;10.20;;;4.22;;
62179;SDS011;48172;53.374;10.722;2022-10-17T15:52:16;9.45;;;3.72;;
62179;SDS011;48172;53.374;10.722;2022-10-17T15:54:43;11.48;;;3.88;;
62179;SDS011;48172;53.374;10.722;2022-10-17T15:57:16;6.47;;;3.50;;
62179;SDS011;48172;53.374;10.722;2022-10-17T15:59:45;8.02;;;3.55;;
62179;SDS011;48172;53.374;10.722;2022-10-17T16:02:13;8.35;;;3.17;;
62179;SDS011;48172;53.374;10.722;2022-10-17T16:04:40;8.18;;;4.18;;
62179;SDS011;48172;53.374;10.722;2022-10-17T16:07:07;7.90;;;3.38;;
62179;SDS011;48172;53.374;10.722;2022-10-17T16:09:34;7.20;;;3.22;;
62179;SDS011;48172;53.374;10.722;2022-10-17T16:12:08;7.88;;;3.50;;
62179;SDS011;48172;53.374;10.722;2022-10-17T16:14:39;5.55;;;3.40;;
62179;SDS011;48172;53.374;10.722;2022-10-17T16:17:07;7.28;;;3.50;;
62179;SDS011;48172;53.374;10.722;2022-10-17T16:19:37;10.75;;;3.53;;
62179;SDS011;48172;53.374;10.722;2022-10-17T16:22:04;8.75;;;3.60;;
62179;SDS011;48172;53.374;10.722;2022-10-17T16:24:31;8.45;;;3.33;;
62179;SDS011;48172;53.374;10.722;2022-10-17T16:26:58;6.75;;;3.10;;
62179;SDS011;48172;53.374;10.722;2022-10-17T16:29:24;7.00;;;3.47;;
62179;SDS011;48172;53.374;10.722;2022-10-17T16:31:51;5.53;;;3.17;;
62179;SDS011;48172;53.374;10.722;2022-10-17T16:34:17;8.20;;;3.33;;
62179;SDS011;48172;53.374;10.722;2022-10-17T16:36:44;5.35;;;3.30;;
62179;SDS011;48172;53.374;10.722;2022-10-17T16:39:10;5.65;;;3.08;;
62179;SDS011;48172;53.374;10.722;2022-10-17T16:41:37;6.65;;;3.25;;
62179;SDS011;48172;53.374;10.722;2022-10-17T16:44:05;6.00;;;3.13;;
62179;SDS011;48172;53.374;10.722;2022-10-17T16:46:36;7.60;;;3.50;;
62179;SDS011;48172;53.374;10.722;2022-10-17T16:49:05;6.40;;;3.22;;
62179;SDS011;48172;53.374;10.722;2022-10-17T16:51:32;7.10;;;3.63;;
62179;SDS011;48172;53.374;10.722;2022-10-17T16:54:01;6.95;;;2.97;;
62179;SDS011;48172;53.374;10.722;2022-10-17T16:56:27;4.78;;;2.92;;
62179;SDS011;48172;53.374;10.722;2022-10-17T16:58:58;6.32;;;3.05;;
62179;SDS011;48172;53.374;10.722;2022-10-17T17:01:25;6.75;;;3.35;;
62179;SDS011;48172;53.374;10.722;2022-10-17T17:03:54;6.00;;;2.90;;
62179;SDS011;48172;53.374;10.722;2022-10-17T17:06:22;6.68;;;3.35;;
62179;SDS011;48172;53.374;10.722;2022-10-17T17:08:51;6.47;;;3.33;;
62179;SDS011;48172;53.374;10.722;2022-10-17T17:11:18;6.32;;;3.20;;
62179;SDS011;48172;53.374;10.722;2022-10-17T17:13:54;7.05;;;3.17;;
62179;SDS011;48172;53.374;10.722;2022-10-17T17:16:22;6.38;;;2.85;;
62179;SDS011;48172;53.374;10.722;2022-10-17T17:18:57;5.80;;;3.40;;
62179;SDS011;48172;53.374;10.722;2022-10-17T17:21:25;4.70;;;2.53;;